sensor_id;sensor_type;location;lat;lon;timestamp;pressure;altitude;pressure_sealevel;temperature;humidity
55590;BME280;41452;42.780;23.116;2024-03-29T00:00:51;94195.78;;;5.85;100.00
55590;BME280;41452;42.780;23.116;2024-03-29T00:03:16;94200.22;;;5.71;100.00
55590;BME280;41452;42.780;23.116;2024-03-29T00:05:41;94204.59;;;5.77;100.00
55590;BME280;41452;42.780;23.116;2024-03-29T00:08:06;94209.22;;;5.75;100.00
55590;BME280;41452;42.780;23.116;2024-03-29T00:10:32;94213.44;;;5.69;100.00
55590;BME280;41452;42.780;23.116;2024-03-29T00:12:58;94213.84;;;5.73;100.00
55590;BME280;41452;42.780;23.116;2024-03-29T00:15:23;94212.84;;;5.67;100.00
55590;BME280;41452;42.780;23.116;2024-03-29T00:17:49;94215.06;;;5.64;100.00
55590;BME280;41452;42.780;23.116;2024-03-29T00:20:14;94223.09;;;5.62;100.00
55590;BME280;41452;42.780;23.116;2024-03-29T00:22:40;94222.69;;;5.52;100.00
55590;BME280;41452;42.780;23.116;2024-03-29T00:25:05;94223.28;;;5.67;100.00
55590;BME280;41452;42.780;23.116;2024-03-29T00:27:31;94230.69;;;5.70;100.00
55590;BME280;41452;42.780;23.116;2024-03-29T00:29:57;94227.91;;;5.65;100.00
55590;BME280;41452;42.780;23.116;2024-03-29T00:32:23;94227.50;;;5.62;100.00
55590;BME280;41452;42.780;23.116;2024-03-29T00:34:51;94239.91;;;5.66;100.00
55590;BME280;41452;42.780;23.116;2024-03-29T00:37:17;94225.09;;;5.53;100.00
55590;BME280;41452;42.780;23.116;2024-03-29T00:39:42;94230.69;;;5.57;100.00
55590;BME280;41452;42.780;23.116;2024-03-29T00:42:08;94240.31;;;5.50;100.00
55590;BME280;41452;42.780;23.116;2024-03-29T00:44:41;94240.50;;;5.42;100.00
55590;BME280;41452;42.780;23.116;2024-03-29T00:47:06;94250.94;;;5.42;100.00
55590;BME280;41452;42.780;23.116;2024-03-29T00:49:31;94249.94;;;5.29;100.00
55590;BME280;41452;42.780;23.116;2024-03-29T00:51:56;94253.31;;;5.17;100.00
55590;BME280;41452;42.780;23.116;2024-03-29T00:54:22;94253.91;;;5.19;100.00
55590;BME280;41452;42.780;23.116;2024-03-29T00:56:49;94252.91;;;5.13;100.00
55590;BME280;41452;42.780;23.116;2024-03-29T00:59:14;94251.13;;;5.13;100.00
55590;BME280;41452;42.780;23.116;2024-03-29T01:01:39;94256.72;;;5.04;100.00
55590;BME280;41452;42.780;23.116;2024-03-29T01:04:04;94252.09;;;5.06;100.00
55590;BME280;41452;42.780;23.116;2024-03-29T01:06:30;94254.13;;;5.04;100.00
55590;BME280;41452;42.780;23.116;2024-03-29T01:08:55;94254.13;;;5.04;100.00
55590;BME280;41452;42.780;23.116;2024-03-29T01:11:20;94255.91;;;4.97;100.00
55590;BME280;41452;42.780;23.116;2024-03-29T01:13:45;94251.50;;;4.97;100.00
55590;BME280;41452;42.780;23.116;2024-03-29T01:16:11;94254.91;;;4.98;100.00
55590;BME280;41452;42.780;23.116;2024-03-29T01:18:36;94251.69;;;4.95;100.00
55590;BME280;41452;42.780;23.116;2024-03-29T01:21:01;94241.09;;;4.90;100.00
55590;BME280;41452;42.780;23.116;2024-03-29T01:23:27;94232.47;;;4.90;100.00
55590;BME280;41452;42.780;23.116;2024-03-29T01:25:52;94236.06;;;4.95;100.00
55590;BME280;41452;42.780;23.116;2024-03-29T01:28:17;94243.88;;;4.89;100.00
55590;BME280;41452;42.780;23.116;2024-03-29T01:30:43;94244.25;;;4.79;100.00
55590;BME280;41452;42.780;23.116;2024-03-29T01:33:08;94248.66;;;4.79;100.00
55590;BME280;41452;42.780;23.116;2024-03-29T01:35:33;94235.25;;;4.82;100.00
55590;BME280;41452;42.780;23.116;2024-03-29T01:37:58;94247.25;;;4.83;100.00
55590;BME280;41452;42.780;23.116;2024-03-29T01:40:24;94263.69;;;4.83;100.00
55590;BME280;41452;42.780;23.116;2024-03-29T01:42:52;94252.44;;;4.76;100.00
55590;BME280;41452;42.780;23.116;2024-03-29T01:45:18;94263.47;;;4.78;100.00
55590;BME280;41452;42.780;23.116;2024-03-29T01:47:43;94264.25;;;4.72;100.00
55590;BME280;41452;42.780;23.116;2024-03-29T01:50:08;94263.03;;;4.68;100.00
55590;BME280;41452;42.780;23.116;2024-03-29T01:52:33;94267.22;;;4.69;100.00
55590;BME280;41452;42.780;23.116;2024-03-29T01:54:59;94275.66;;;4.71;100.00
55590;BME280;41452;42.780;23.116;2024-03-29T01:57:25;94281.25;;;4.68;100.00
55590;BME280;41452;42.780;23.116;2024-03-29T01:59:50;94278.44;;;4.63;100.00
55590;BME280;41452;42.780;23.116;2024-03-29T02:02:15;94292.44;;;4.68;100.00
55590;BME280;41452;42.780;23.116;2024-03-29T02:04:40;94308.84;;;4.69;100.00
55590;BME280;41452;42.780;23.116;2024-03-29T02:07:06;94305.84;;;4.65;100.00
55590;BME280;41452;42.780;23.116;2024-03-29T02:09:32;94314.88;;;4.76;100.00
55590;BME280;41452;42.780;23.116;2024-03-29T02:11:57;94328.91;;;4.75;100.00
55590;BME280;41452;42.780;23.116;2024-03-29T02:14:22;94329.06;;;4.67;100.00
55590;BME280;41452;42.780;23.116;2024-03-29T02:16:48;94321.25;;;4.67;100.00
55590;BME280;41452;42.780;23.116;2024-03-29T02:19:14;94321.47;;;4.72;100.00
55590;BME280;41452;42.780;23.116;2024-03-29T02:21:41;94329.06;;;4.67;100.00
55590;BME280;41452;42.780;23.116;2024-03-29T02:24:07;94336.31;;;4.78;100.00
55590;BME280;41452;42.780;23.116;2024-03-29T02:26:33;94335.91;;;4.81;100.00
55590;BME280;41452;42.780;23.116;2024-03-29T02:29:01;94344.31;;;4.76;100.00
55590;BME280;41452;42.780;23.116;2024-03-29T02:31:26;94346.84;;;4.63;100.00
55590;BME280;41452;42.780;23.116;2024-03-29T02:33:51;94338.41;;;4.54;100.00
55590;BME280;41452;42.780;23.116;2024-03-29T02:36:17;94318.91;;;4.37;100.00
55590;BME280;41452;42.780;23.116;2024-03-29T02:38:42;94350.19;;;4.50;100.00
55590;BME280;41452;42.780;23.116;2024-03-29T02:41:07;94360.38;;;4.45;100.00
55590;BME280;41452;42.780;23.116;2024-03-29T02:43:32;94360.13;;;4.40;100.00
55590;BME280;41452;42.780;23.116;2024-03-29T02:45:58;94356.19;;;4.44;100.00
55590;BME280;41452;42.780;23.116;2024-03-29T02:48:23;94360.09;;;4.33;100.00
55590;BME280;41452;42.780;23.116;2024-03-29T02:50:48;94357.72;;;4.32;100.00
55590;BME280;41452;42.780;23.116;2024-03-29T02:53:13;94364.66;;;4.25;100.00
55590;BME280;41452;42.780;23.116;2024-03-29T02:55:40;94370.78;;;4.17;100.00
55590;BME280;41452;42.780;23.116;2024-03-29T02:58:05;94374.00;;;4.19;100.00
55590;BME280;41452;42.780;23.116;2024-03-29T03:00:31;94376.41;;;4.21;100.00
55590;BME280;41452;42.780;23.116;2024-03-29T03:02:56;94368.38;;;4.15;100.00
55590;BME280;41452;42.780;23.116;2024-03-29T03:05:21;94380.22;;;4.18;100.00
55590;BME280;41452;42.780;23.116;2024-03-29T03:07:46;94394.34;;;4.09;100.00
55590;BME280;41452;42.780;23.116;2024-03-29T03:10:30;94387.59;;;4.14;100.00
55590;BME280;41452;42.780;23.116;2024-03-29T03:13:14;94387.16;;;4.11;100.00
55590;BME280;41452;42.780;23.116;2024-03-29T03:15:39;94395.13;;;4.09;100.00
55590;BME280;41452;42.780;23.116;2024-03-29T03:18:04;94398.72;;;4.08;100.00
55590;BME280;41452;42.780;23.116;2024-03-29T03:20:30;94401.13;;;4.10;100.00
55590;BME280;41452;42.780;23.116;2024-03-29T03:22:56;94408.47;;;4.28;100.00
55590;BME280;41452;42.780;23.116;2024-03-29T03:25:22;94400.41;;;4.23;100.00
55590;BME280;41452;42.780;23.116;2024-03-29T03:27:47;94408.38;;;4.14;100.00
55590;BME280;41452;42.780;23.116;2024-03-29T03:30:13;94405.91;;;4.06;100.00
55590;BME280;41452;42.780;23.116;2024-03-29T03:32:38;94415.06;;;4.02;100.00
55590;BME280;41452;42.780;23.116;2024-03-29T03:35:03;94408.88;;;4.03;100.00
55590;BME280;41452;42.780;23.116;2024-03-29T03:37:29;94421.06;;;4.03;100.00
55590;BME280;41452;42.780;23.116;2024-03-29T03:39:54;94419.50;;;4.08;100.00
55590;BME280;41452;42.780;23.116;2024-03-29T03:42:19;94426.25;;;4.03;100.00
55590;BME280;41452;42.780;23.116;2024-03-29T03:44:45;94428.31;;;4.07;100.00
55590;BME280;41452;42.780;23.116;2024-03-29T03:47:10;94438.09;;;4.05;100.00
55590;BME280;41452;42.780;23.116;2024-03-29T03:49:35;94439.88;;;4.05;100.00
55590;BME280;41452;42.780;23.116;2024-03-29T03:52:00;94440.69;;;4.05;100.00
55590;BME280;41452;42.780;23.116;2024-03-29T03:54:25;94445.13;;;4.11;100.00
55590;BME280;41452;42.780;23.116;2024-03-29T03:56:51;94440.69;;;4.05;100.00
55590;BME280;41452;42.780;23.116;2024-03-29T03:59:16;94444.09;;;4.06;100.00
55590;BME280;41452;42.780;23.116;2024-03-29T04:01:41;94451.94;;;4.12;100.00
55590;BME280;41452;42.780;23.116;2024-03-29T04:04:06;94446.75;;;4.12;100.00
55590;BME280;41452;42.780;23.116;2024-03-29T04:06:32;94453.34;;;4.15;100.00
55590;BME280;41452;42.780;23.116;2024-03-29T04:08:57;94462.53;;;4.11;100.00
55590;BME280;41452;42.780;23.116;2024-03-29T04:11:22;94455.28;;;4.06;100.00
55590;BME280;41452;42.780;23.116;2024-03-29T04:13:48;94459.50;;;4.07;100.00
55590;BME280;41452;42.780;23.116;2024-03-29T04:16:13;94464.94;;;4.12;100.00
55590;BME280;41452;42.780;23.116;2024-03-29T04:18:38;94469.06;;;4.07;100.00
55590;BME280;41452;42.780;23.116;2024-03-29T04:21:04;94473.91;;;4.10;100.00
55590;BME280;41452;42.780;23.116;2024-03-29T04:23:29;94479.91;;;4.10;100.00
55590;BME280;41452;42.780;23.116;2024-03-29T04:25:55;94479.03;;;4.03;100.00
55590;BME280;41452;42.780;23.116;2024-03-29T04:28:21;94481.03;;;4.01;100.00
55590;BME280;41452;42.780;23.116;2024-03-29T04:30:56;94494.00;;;4.01;100.00
55590;BME280;41452;42.780;23.116;2024-03-29T04:33:22;94489.56;;;3.95;100.00
55590;BME280;41452;42.780;23.116;2024-03-29T04:35:54;94487.69;;;4.10;100.00
55590;BME280;41452;42.780;23.116;2024-03-29T04:38:20;94499.47;;;4.06;100.00
55590;BME280;41452;42.780;23.116;2024-03-29T04:40:45;94501.34;;;4.12;100.00
55590;BME280;41452;42.780;23.116;2024-03-29T04:43:11;94502.00;;;4.21;100.00
55590;BME280;41452;42.780;23.116;2024-03-29T04:45:36;94500.69;;;4.32;100.00
55590;BME280;41452;42.780;23.116;2024-03-29T04:48:01;94516.59;;;4.44;100.00
55590;BME280;41452;42.780;23.116;2024-03-29T04:50:26;94518.22;;;4.45;100.00
55590;BME280;41452;42.780;23.116;2024-03-29T04:52:52;94517.06;;;4.54;100.00
55590;BME280;41452;42.780;23.116;2024-03-29T04:55:17;94518.97;;;4.67;100.00
55590;BME280;41452;42.780;23.116;2024-03-29T04:57:42;94526.03;;;4.73;100.00
55590;BME280;41452;42.780;23.116;2024-03-29T05:00:08;94527.78;;;5.01;100.00
55590;BME280;41452;42.780;23.116;2024-03-29T05:02:36;94526.19;;;5.34;100.00
55590;BME280;41452;42.780;23.116;2024-03-29T05:05:02;94533.91;;;5.63;100.00
55590;BME280;41452;42.780;23.116;2024-03-29T05:07:28;94536.66;;;5.96;100.00
55590;BME280;41452;42.780;23.116;2024-03-29T05:09:53;94545.75;;;6.20;100.00
55590;BME280;41452;42.780;23.116;2024-03-29T05:12:18;94556.63;;;6.37;100.00
55590;BME280;41452;42.780;23.116;2024-03-29T05:14:44;94552.44;;;6.63;100.00
55590;BME280;41452;42.780;23.116;2024-03-29T05:17:09;94547.59;;;6.80;100.00
55590;BME280;41452;42.780;23.116;2024-03-29T05:19:34;94560.88;;;6.98;100.00
55590;BME280;41452;42.780;23.116;2024-03-29T05:22:02;94565.66;;;7.01;100.00
55590;BME280;41452;42.780;23.116;2024-03-29T05:24:27;94560.25;;;7.10;100.00
55590;BME280;41452;42.780;23.116;2024-03-29T05:26:52;94552.16;;;7.24;100.00
55590;BME280;41452;42.780;23.116;2024-03-29T05:29:18;94559.94;;;7.51;100.00
55590;BME280;41452;42.780;23.116;2024-03-29T05:31:43;94560.69;;;7.78;100.00
55590;BME280;41452;42.780;23.116;2024-03-29T05:34:09;94550.47;;;8.09;100.00
55590;BME280;41452;42.780;23.116;2024-03-29T05:36:34;94559.44;;;8.26;100.00
55590;BME280;41452;42.780;23.116;2024-03-29T05:39:01;94567.19;;;8.40;100.00
55590;BME280;41452;42.780;23.116;2024-03-29T05:41:26;94565.47;;;8.65;100.00
55590;BME280;41452;42.780;23.116;2024-03-29T05:43:51;94564.53;;;8.85;100.00
55590;BME280;41452;42.780;23.116;2024-03-29T05:46:16;94569.16;;;9.08;100.00
55590;BME280;41452;42.780;23.116;2024-03-29T05:48:42;94569.19;;;9.26;100.00
55590;BME280;41452;42.780;23.116;2024-03-29T05:51:08;94572.06;;;9.43;100.00
55590;BME280;41452;42.780;23.116;2024-03-29T05:53:33;94584.88;;;9.51;100.00
55590;BME280;41452;42.780;23.116;2024-03-29T05:55:58;94591.94;;;9.69;100.00
55590;BME280;41452;42.780;23.116;2024-03-29T05:58:23;94586.78;;;9.81;99.52
55590;BME280;41452;42.780;23.116;2024-03-29T06:00:49;94590.78;;;10.02;96.46
55590;BME280;41452;42.780;23.116;2024-03-29T06:03:14;94597.25;;;10.18;95.60
55590;BME280;41452;42.780;23.116;2024-03-29T06:05:40;94594.88;;;10.28;95.70
55590;BME280;41452;42.780;23.116;2024-03-29T06:08:06;94595.03;;;10.64;88.22
55590;BME280;41452;42.780;23.116;2024-03-29T06:10:31;94599.44;;;10.82;85.97
55590;BME280;41452;42.780;23.116;2024-03-29T06:12:56;94593.09;;;11.01;80.02
55590;BME280;41452;42.780;23.116;2024-03-29T06:15:23;94594.56;;;11.09;80.82
55590;BME280;41452;42.780;23.116;2024-03-29T06:18:07;94604.75;;;11.29;80.97
55590;BME280;41452;42.780;23.116;2024-03-29T06:20:33;94593.78;;;11.32;81.15
55590;BME280;41452;42.780;23.116;2024-03-29T06:22:58;94602.34;;;11.28;83.00
55590;BME280;41452;42.780;23.116;2024-03-29T06:25:24;94583.97;;;11.51;78.51
55590;BME280;41452;42.780;23.116;2024-03-29T06:27:49;94592.75;;;11.57;77.56
55590;BME280;41452;42.780;23.116;2024-03-29T06:30:14;94593.31;;;11.59;80.31
55590;BME280;41452;42.780;23.116;2024-03-29T06:32:44;94596.88;;;11.65;76.20
55590;BME280;41452;42.780;23.116;2024-03-29T06:35:10;94602.34;;;11.75;75.19
55590;BME280;41452;42.780;23.116;2024-03-29T06:37:36;94593.06;;;11.72;75.52
55590;BME280;41452;42.780;23.116;2024-03-29T06:40:02;94598.00;;;11.80;77.95
55590;BME280;41452;42.780;23.116;2024-03-29T06:42:28;94598.66;;;11.88;73.54
55590;BME280;41452;42.780;23.116;2024-03-29T06:44:53;94585.72;;;11.86;75.23
55590;BME280;41452;42.780;23.116;2024-03-29T06:47:19;94585.09;;;11.91;74.32
55590;BME280;41452;42.780;23.116;2024-03-29T06:49:44;94594.75;;;12.14;75.07
55590;BME280;41452;42.780;23.116;2024-03-29T06:52:10;94595.53;;;12.14;74.92
55590;BME280;41452;42.780;23.116;2024-03-29T06:54:36;94608.03;;;12.19;73.86
55590;BME280;41452;42.780;23.116;2024-03-29T06:57:01;94603.78;;;12.47;72.27
55590;BME280;41452;42.780;23.116;2024-03-29T06:59:28;94609.22;;;12.40;69.01
55590;BME280;41452;42.780;23.116;2024-03-29T07:01:53;94610.22;;;12.51;71.79
55590;BME280;41452;42.780;23.116;2024-03-29T07:04:20;94610.25;;;12.39;72.60
55590;BME280;41452;42.780;23.116;2024-03-29T07:06:45;94610.97;;;12.63;70.13
55590;BME280;41452;42.780;23.116;2024-03-29T07:09:13;94604.81;;;12.74;69.77
55590;BME280;41452;42.780;23.116;2024-03-29T07:11:38;94613.28;;;12.77;71.18
55590;BME280;41452;42.780;23.116;2024-03-29T07:14:03;94609.13;;;12.64;70.33
55590;BME280;41452;42.780;23.116;2024-03-29T07:16:29;94615.38;;;12.91;69.21
55590;BME280;41452;42.780;23.116;2024-03-29T07:18:55;94609.72;;;13.00;70.13
55590;BME280;41452;42.780;23.116;2024-03-29T07:21:20;94615.47;;;12.97;66.12
55590;BME280;41452;42.780;23.116;2024-03-29T07:23:45;94614.28;;;13.04;67.69
55590;BME280;41452;42.780;23.116;2024-03-29T07:26:11;94617.09;;;13.15;66.98
55590;BME280;41452;42.780;23.116;2024-03-29T07:28:36;94610.63;;;13.22;69.27
55590;BME280;41452;42.780;23.116;2024-03-29T07:31:05;94608.41;;;13.31;68.65
55590;BME280;41452;42.780;23.116;2024-03-29T07:33:34;94608.19;;;13.33;71.02
55590;BME280;41452;42.780;23.116;2024-03-29T07:35:59;94604.25;;;13.52;71.37
55590;BME280;41452;42.780;23.116;2024-03-29T07:38:25;94606.72;;;13.42;73.44
55590;BME280;41452;42.780;23.116;2024-03-29T07:40:51;94597.88;;;13.31;69.98
55590;BME280;41452;42.780;23.116;2024-03-29T07:43:16;94599.59;;;13.59;69.09
55590;BME280;41452;42.780;23.116;2024-03-29T07:45:42;94607.63;;;13.69;69.71
55590;BME280;41452;42.780;23.116;2024-03-29T07:48:12;94614.28;;;13.72;66.44
55590;BME280;41452;42.780;23.116;2024-03-29T07:50:38;94615.53;;;14.08;64.80
55590;BME280;41452;42.780;23.116;2024-03-29T07:53:04;94607.81;;;14.02;64.97
55590;BME280;41452;42.780;23.116;2024-03-29T07:55:29;94610.72;;;13.83;66.45
55590;BME280;41452;42.780;23.116;2024-03-29T07:57:54;94621.56;;;14.26;63.21
55590;BME280;41452;42.780;23.116;2024-03-29T08:00:21;94607.88;;;14.29;64.57
55590;BME280;41452;42.780;23.116;2024-03-29T08:02:46;94613.47;;;14.33;64.22
55590;BME280;41452;42.780;23.116;2024-03-29T08:05:11;94615.28;;;14.54;61.89
55590;BME280;41452;42.780;23.116;2024-03-29T08:07:38;94609.34;;;14.42;63.36
55590;BME280;41452;42.780;23.116;2024-03-29T08:10:03;94615.84;;;14.78;63.30
55590;BME280;41452;42.780;23.116;2024-03-29T08:12:29;94606.06;;;14.57;65.83
55590;BME280;41452;42.780;23.116;2024-03-29T08:14:54;94603.44;;;14.57;65.76
55590;BME280;41452;42.780;23.116;2024-03-29T08:17:20;94593.28;;;14.49;64.45
55590;BME280;41452;42.780;23.116;2024-03-29T08:19:45;94593.13;;;14.33;64.97
55590;BME280;41452;42.780;23.116;2024-03-29T08:22:10;94586.66;;;14.68;65.70
55590;BME280;41452;42.780;23.116;2024-03-29T08:24:36;94584.38;;;14.55;65.78
55590;BME280;41452;42.780;23.116;2024-03-29T08:27:01;94581.13;;;14.70;65.70
55590;BME280;41452;42.780;23.116;2024-03-29T08:29:27;94584.97;;;15.16;62.02
55590;BME280;41452;42.780;23.116;2024-03-29T08:31:52;94586.19;;;15.04;62.67
55590;BME280;41452;42.780;23.116;2024-03-29T08:34:17;94580.41;;;15.07;64.55
55590;BME280;41452;42.780;23.116;2024-03-29T08:36:43;94577.22;;;15.42;64.38
55590;BME280;41452;42.780;23.116;2024-03-29T08:39:08;94584.19;;;15.58;64.81
55590;BME280;41452;42.780;23.116;2024-03-29T08:41:33;94580.63;;;15.37;62.57
55590;BME280;41452;42.780;23.116;2024-03-29T08:43:58;94577.31;;;15.57;63.18
55590;BME280;41452;42.780;23.116;2024-03-29T08:46:24;94577.66;;;15.71;63.12
55590;BME280;41452;42.780;23.116;2024-03-29T08:48:49;94576.69;;;15.45;61.35
55590;BME280;41452;42.780;23.116;2024-03-29T08:51:14;94576.84;;;15.66;61.88
55590;BME280;41452;42.780;23.116;2024-03-29T08:53:40;94571.94;;;15.85;61.89
55590;BME280;41452;42.780;23.116;2024-03-29T08:56:05;94577.41;;;15.73;65.26
55590;BME280;41452;42.780;23.116;2024-03-29T08:58:31;94569.00;;;15.86;60.64
55590;BME280;41452;42.780;23.116;2024-03-29T09:00:56;94564.03;;;16.00;65.11
55590;BME280;41452;42.780;23.116;2024-03-29T09:03:22;94554.00;;;16.02;59.57
55590;BME280;41452;42.780;23.116;2024-03-29T09:05:48;94556.16;;;16.15;58.65
55590;BME280;41452;42.780;23.116;2024-03-29T09:08:13;94553.28;;;16.22;59.33
55590;BME280;41452;42.780;23.116;2024-03-29T09:10:38;94553.78;;;16.14;58.07
55590;BME280;41452;42.780;23.116;2024-03-29T09:13:03;94547.28;;;15.84;59.54
55590;BME280;41452;42.780;23.116;2024-03-29T09:15:30;94552.31;;;16.64;58.81
55590;BME280;41452;42.780;23.116;2024-03-29T09:17:55;94545.44;;;16.68;56.72
55590;BME280;41452;42.780;23.116;2024-03-29T09:20:20;94540.63;;;16.55;58.85
55590;BME280;41452;42.780;23.116;2024-03-29T09:22:46;94530.84;;;16.50;56.90
55590;BME280;41452;42.780;23.116;2024-03-29T09:25:11;94531.06;;;16.33;57.61
55590;BME280;41452;42.780;23.116;2024-03-29T09:27:39;94524.41;;;16.36;59.09
55590;BME280;41452;42.780;23.116;2024-03-29T09:30:07;94530.00;;;16.45;60.27
55590;BME280;41452;42.780;23.116;2024-03-29T09:32:34;94529.00;;;16.66;57.48
55590;BME280;41452;42.780;23.116;2024-03-29T09:35:00;94528.47;;;16.80;56.20
55590;BME280;41452;42.780;23.116;2024-03-29T09:37:28;94523.97;;;16.80;57.81
55590;BME280;41452;42.780;23.116;2024-03-29T09:39:53;94526.41;;;17.13;56.78
55590;BME280;41452;42.780;23.116;2024-03-29T09:42:18;94513.34;;;17.37;57.45
55590;BME280;41452;42.780;23.116;2024-03-29T09:44:47;94512.56;;;17.16;53.61
55590;BME280;41452;42.780;23.116;2024-03-29T09:47:15;94502.78;;;16.90;54.39
55590;BME280;41452;42.780;23.116;2024-03-29T09:49:42;94507.81;;;17.13;57.03
55590;BME280;41452;42.780;23.116;2024-03-29T09:52:09;94503.56;;;17.12;56.43
55590;BME280;41452;42.780;23.116;2024-03-29T09:54:34;94499.28;;;17.41;55.16
55590;BME280;41452;42.780;23.116;2024-03-29T09:57:00;94508.56;;;17.34;53.21
55590;BME280;41452;42.780;23.116;2024-03-29T09:59:25;94493.22;;;17.20;54.26
55590;BME280;41452;42.780;23.116;2024-03-29T10:01:51;94484.41;;;17.35;53.00
55590;BME280;41452;42.780;23.116;2024-03-29T10:04:18;94486.69;;;17.73;53.20
55590;BME280;41452;42.780;23.116;2024-03-29T10:06:46;94482.50;;;17.51;53.03
55590;BME280;41452;42.780;23.116;2024-03-29T10:09:14;94471.59;;;17.68;50.64
55590;BME280;41452;42.780;23.116;2024-03-29T10:11:40;94478.44;;;17.79;50.09
55590;BME280;41452;42.780;23.116;2024-03-29T10:14:05;94489.09;;;17.74;49.67
55590;BME280;41452;42.780;23.116;2024-03-29T10:16:30;94485.41;;;17.60;52.73
55590;BME280;41452;42.780;23.116;2024-03-29T10:18:58;94477.94;;;17.72;51.46
55590;BME280;41452;42.780;23.116;2024-03-29T10:21:26;94481.66;;;17.71;51.62
55590;BME280;41452;42.780;23.116;2024-03-29T10:23:52;94466.78;;;17.70;55.25
55590;BME280;41452;42.780;23.116;2024-03-29T10:26:17;94479.81;;;17.66;54.85
55590;BME280;41452;42.780;23.116;2024-03-29T10:28:43;94468.44;;;17.51;56.22
55590;BME280;41452;42.780;23.116;2024-03-29T10:31:08;94473.50;;;17.52;52.72
55590;BME280;41452;42.780;23.116;2024-03-29T10:33:33;94477.41;;;17.75;51.42
55590;BME280;41452;42.780;23.116;2024-03-29T10:35:59;94477.16;;;17.72;50.85
55590;BME280;41452;42.780;23.116;2024-03-29T10:38:25;94468.09;;;17.78;56.66
55590;BME280;41452;42.780;23.116;2024-03-29T10:40:51;94461.38;;;17.96;54.63
55590;BME280;41452;42.780;23.116;2024-03-29T10:43:16;94459.19;;;18.08;53.74
55590;BME280;41452;42.780;23.116;2024-03-29T10:45:42;94463.38;;;18.24;50.57
55590;BME280;41452;42.780;23.116;2024-03-29T10:48:08;94459.59;;;18.36;51.24
55590;BME280;41452;42.780;23.116;2024-03-29T10:50:35;94462.28;;;18.26;52.39
55590;BME280;41452;42.780;23.116;2024-03-29T10:53:01;94454.84;;;18.28;48.80
55590;BME280;41452;42.780;23.116;2024-03-29T10:55:28;94455.53;;;17.99;52.58
55590;BME280;41452;42.780;23.116;2024-03-29T10:57:54;94458.88;;;18.59;51.47
55590;BME280;41452;42.780;23.116;2024-03-29T11:00:22;94451.94;;;18.64;54.91
55590;BME280;41452;42.780;23.116;2024-03-29T11:05:16;94445.75;;;18.73;53.11
55590;BME280;41452;42.780;23.116;2024-03-29T11:07:42;94455.50;;;18.09;52.79
55590;BME280;41452;42.780;23.116;2024-03-29T11:10:20;94443.56;;;18.46;52.76
55590;BME280;41452;42.780;23.116;2024-03-29T11:12:55;94446.31;;;18.65;52.28
55590;BME280;41452;42.780;23.116;2024-03-29T11:15:28;94453.97;;;18.77;48.91
55590;BME280;41452;42.780;23.116;2024-03-29T11:17:54;94438.50;;;18.79;50.63
55590;BME280;41452;42.780;23.116;2024-03-29T11:20:20;94449.69;;;18.76;55.94
55590;BME280;41452;42.780;23.116;2024-03-29T11:22:49;94445.00;;;18.68;52.55
55590;BME280;41452;42.780;23.116;2024-03-29T11:25:15;94442.25;;;18.78;45.77
55590;BME280;41452;42.780;23.116;2024-03-29T11:27:40;94445.66;;;18.89;45.15
55590;BME280;41452;42.780;23.116;2024-03-29T11:30:05;94435.63;;;19.10;50.87
55590;BME280;41452;42.780;23.116;2024-03-29T11:32:34;94439.91;;;19.06;52.07
55590;BME280;41452;42.780;23.116;2024-03-29T11:35:00;94439.38;;;19.04;51.45
55590;BME280;41452;42.780;23.116;2024-03-29T11:37:29;94446.94;;;18.91;47.50
55590;BME280;41452;42.780;23.116;2024-03-29T11:39:54;94435.22;;;19.22;42.49
55590;BME280;41452;42.780;23.116;2024-03-29T11:42:34;94436.97;;;19.55;43.43
55590;BME280;41452;42.780;23.116;2024-03-29T11:45:00;94434.06;;;19.33;42.76
55590;BME280;41452;42.780;23.116;2024-03-29T11:47:25;94434.50;;;19.40;44.50
55590;BME280;41452;42.780;23.116;2024-03-29T11:49:58;94432.34;;;19.42;40.31
55590;BME280;41452;42.780;23.116;2024-03-29T11:52:25;94434.81;;;19.09;44.91
55590;BME280;41452;42.780;23.116;2024-03-29T11:54:51;94421.97;;;19.41;43.87
55590;BME280;41452;42.780;23.116;2024-03-29T11:57:16;94431.31;;;19.14;46.62
55590;BME280;41452;42.780;23.116;2024-03-29T11:59:41;94420.38;;;18.86;43.30
55590;BME280;41452;42.780;23.116;2024-03-29T12:02:07;94413.31;;;19.30;42.90
55590;BME280;41452;42.780;23.116;2024-03-29T12:04:39;94418.50;;;19.16;43.48
55590;BME280;41452;42.780;23.116;2024-03-29T12:07:04;94416.09;;;19.44;43.30
55590;BME280;41452;42.780;23.116;2024-03-29T12:09:29;94419.75;;;19.24;43.00
55590;BME280;41452;42.780;23.116;2024-03-29T12:11:54;94414.28;;;19.39;41.26
55590;BME280;41452;42.780;23.116;2024-03-29T12:14:23;94414.16;;;19.73;42.75
55590;BME280;41452;42.780;23.116;2024-03-29T12:16:49;94402.38;;;19.80;40.38
55590;BME280;41452;42.780;23.116;2024-03-29T12:19:22;94401.72;;;20.45;40.20
55590;BME280;41452;42.780;23.116;2024-03-29T12:21:47;94403.81;;;20.29;44.14
55590;BME280;41452;42.780;23.116;2024-03-29T12:24:13;94400.50;;;19.99;44.24
55590;BME280;41452;42.780;23.116;2024-03-29T12:26:38;94401.88;;;19.78;46.24
55590;BME280;41452;42.780;23.116;2024-03-29T12:29:05;94401.34;;;19.94;41.21
55590;BME280;41452;42.780;23.116;2024-03-29T12:31:30;94406.41;;;19.96;42.88
55590;BME280;41452;42.780;23.116;2024-03-29T12:33:55;94406.78;;;20.08;41.93
55590;BME280;41452;42.780;23.116;2024-03-29T12:36:24;94395.66;;;20.01;42.45
55590;BME280;41452;42.780;23.116;2024-03-29T12:38:53;94402.00;;;20.05;42.30
55590;BME280;41452;42.780;23.116;2024-03-29T12:41:22;94398.69;;;19.94;44.08
55590;BME280;41452;42.780;23.116;2024-03-29T12:43:49;94396.91;;;19.90;45.61
55590;BME280;41452;42.780;23.116;2024-03-29T12:46:15;94401.13;;;19.91;41.59